Time;durP1;ratioP1;P1;durP2;ratioP2;P2;SDS_P1;SDS_P2;PMS_P1;PMS_P2;Temp;Humidity;BMP_temperature;BMP_pressure;BME280_temperature;BME280_humidity;BME280_pressure;Samples;Min_cycle;Max_cycle;Signal;HPM_P1;HPM_P2
2021/08/11 00:00:38;;;;;;;6.18;3.88;;;17.50;99.90;;;;;;5052310;28;20478;-67
2021/08/11 00:03:03;;;;;;;4.90;3.47;;;17.50;99.90;;;;;;5052036;28;20071;-67
2021/08/11 00:05:29;;;;;;;8.07;3.60;;;17.50;99.90;;;;;;5052172;28;20036;-67
2021/08/11 00:07:54;;;;;;;3.78;3.08;;;17.50;99.90;;;;;;5052143;28;20381;-67
2021/08/11 00:10:20;;;;;;;3.65;2.97;;;17.40;99.90;;;;;;5037108;28;20654;-67
2021/08/11 00:12:46;;;;;;;3.83;3.22;;;17.40;99.90;;;;;;5031853;28;20514;-67
2021/08/11 00:15:11;;;;;;;4.05;3.10;;;17.40;99.90;;;;;;5031066;28;20033;-67
2021/08/11 00:17:38;;;;;;;4.15;3.33;;;17.40;99.90;;;;;;5032015;28;20045;-67
2021/08/11 00:20:05;;;;;;;4.95;3.75;;;17.40;99.90;;;;;;5044172;28;20025;-67
2021/08/11 00:22:31;;;;;;;5.20;3.33;;;17.40;99.90;;;;;;5051838;28;20044;-67
2021/08/11 00:24:57;;;;;;;6.78;3.25;;;17.30;99.90;;;;;;5051258;28;20462;-67
2021/08/11 00:27:22;;;;;;;4.07;3.38;;;17.30;99.90;;;;;;5049949;28;20036;-67
2021/08/11 00:29:48;;;;;;;4.10;3.45;;;17.20;99.90;;;;;;5051589;28;20477;-67
2021/08/11 00:32:15;;;;;;;5.38;3.30;;;17.20;99.90;;;;;;5051072;28;20021;-67
2021/08/11 00:34:41;;;;;;;3.47;3.13;;;17.20;99.90;;;;;;5051686;28;20033;-67
2021/08/11 00:37:07;;;;;;;4.20;3.53;;;17.20;99.90;;;;;;5050536;28;20530;-67
2021/08/11 00:39:33;;;;;;;5.35;3.90;;;17.10;99.90;;;;;;5051373;28;20061;-67
2021/08/11 00:41:59;;;;;;;6.65;4.25;;;17.10;99.90;;;;;;5051553;28;20385;-67
2021/08/11 00:44:25;;;;;;;6.18;3.55;;;17.20;99.90;;;;;;5050866;28;20056;-67
2021/08/11 00:46:52;;;;;;;4.22;3.38;;;17.20;99.90;;;;;;5031187;28;20399;-67
2021/08/11 00:49:18;;;;;;;7.43;4.25;;;17.20;99.90;;;;;;5030763;28;20037;-67
2021/08/11 00:51:45;;;;;;;5.07;3.78;;;17.20;99.90;;;;;;5031530;28;20386;-67
2021/08/11 00:54:12;;;;;;;4.72;3.42;;;17.10;99.90;;;;;;5030772;28;20453;-67
2021/08/11 00:56:40;;;;;;;4.93;3.78;;;17.10;99.90;;;;;;5044318;28;20040;-67
2021/08/11 00:59:08;;;;;;;5.40;3.50;;;17.20;99.90;;;;;;5050584;28;20029;-67
2021/08/11 01:01:37;;;;;;;5.30;3.33;;;17.20;99.90;;;;;;5051195;28;20033;-67
2021/08/11 01:04:03;;;;;;;4.68;3.22;;;17.20;99.90;;;;;;5050675;28;20551;-67
2021/08/11 01:06:30;;;;;;;5.22;3.45;;;17.20;99.90;;;;;;5051635;28;20029;-67
2021/08/11 01:08:56;;;;;;;4.47;3.38;;;17.20;99.90;;;;;;5037315;28;20431;-67
2021/08/11 01:11:24;;;;;;;5.28;3.47;;;17.10;99.90;;;;;;5031000;28;20528;-67
2021/08/11 01:13:49;;;;;;;5.35;3.20;;;17.20;99.90;;;;;;5031118;28;20025;-67
2021/08/11 01:16:15;;;;;;;7.20;3.58;;;17.20;99.90;;;;;;5030531;28;20108;-67
2021/08/11 01:18:41;;;;;;;5.63;3.30;;;17.20;99.90;;;;;;5031561;28;20025;-67
2021/08/11 01:21:16;;;;;;;8.63;3.53;;;17.20;99.90;;;;;;5030561;28;20030;-67
2021/08/11 01:24:07;;;;;;;5.05;3.75;;;17.20;99.90;;;;;;5030425;28;20029;-67
2021/08/11 01:26:53;;;;;;;4.75;3.40;;;17.20;99.90;;;;;;5044340;28;20032;-67
2021/08/11 01:29:48;;;;;;;7.53;3.92;;;17.20;99.90;;;;;;5050586;28;20067;-67
2021/08/11 01:32:31;;;;;;;4.97;3.25;;;17.10;99.90;;;;;;5050200;28;20105;-67
2021/08/11 01:34:59;;;;;;;9.18;3.95;;;17.10;99.90;;;;;;5051401;28;20052;-67
2021/08/11 01:37:31;;;;;;;6.25;3.67;;;17.10;99.90;;;;;;5054179;28;20132;-67
2021/08/11 01:40:00;;;;;;;4.72;3.30;;;17.10;99.90;;;;;;5054586;28;20522;-67
2021/08/11 01:42:46;;;;;;;4.32;3.33;;;17.10;99.90;;;;;;5053777;28;20822;-67
2021/08/11 01:45:21;;;;;;;5.00;3.90;;;17.10;99.90;;;;;;5053795;28;20041;-67
2021/08/11 01:48:24;;;;;;;9.25;4.03;;;17.10;99.90;;;;;;5054480;28;20467;-67
2021/08/11 01:50:50;;;;;;;5.25;3.38;;;17.10;99.90;;;;;;5013538;28;20827;-66
2021/08/11 01:53:21;;;;;;;9.10;3.80;;;17.10;99.90;;;;;;5012918;28;20375;-66
2021/08/11 01:55:58;;;;;;;7.20;4.38;;;17.10;99.90;;;;;;5029043;28;20389;-66
2021/08/11 01:58:25;;;;;;;5.35;3.17;;;17.00;99.90;;;;;;5052665;28;20621;-67
2021/08/11 02:00:54;;;;;;;4.00;3.58;;;17.00;99.90;;;;;;5054326;28;20478;-67
2021/08/11 02:03:21;;;;;;;4.33;3.47;;;16.90;99.90;;;;;;5053461;28;20020;-67
2021/08/11 02:05:52;;;;;;;5.35;4.00;;;16.90;99.90;;;;;;5054340;28;20045;-67
2021/08/11 02:08:19;;;;;;;9.63;4.60;;;16.80;99.90;;;;;;5053292;28;20040;-67
2021/08/11 02:10:45;;;;;;;5.90;3.83;;;16.70;99.90;;;;;;5035301;28;20045;-67
2021/08/11 02:13:11;;;;;;;8.02;4.28;;;16.70;99.90;;;;;;5033619;28;20029;-67
2021/08/11 02:15:37;;;;;;;5.00;3.90;;;16.70;99.90;;;;;;5034315;28;20037;-67
2021/08/11 02:18:04;;;;;;;6.28;4.00;;;16.60;99.90;;;;;;5033833;28;20045;-67
2021/08/11 02:20:30;;;;;;;4.82;3.50;;;16.60;99.90;;;;;;5033729;28;20068;-67
2021/08/11 02:22:56;;;;;;;6.13;3.35;;;16.50;99.90;;;;;;5032737;28;20075;-67
2021/08/11 02:25:22;;;;;;;4.25;3.60;;;16.40;99.90;;;;;;5033495;28;20086;-67
2021/08/11 02:28:03;;;;;;;6.03;3.85;;;16.40;99.90;;;;;;5048150;28;20028;-67
2021/08/11 02:30:40;;;;;;;5.40;4.05;;;16.30;99.90;;;;;;5053491;28;20133;-67
2021/08/11 02:33:16;;;;;;;8.32;3.90;;;16.30;99.90;;;;;;5052120;28;20113;-67
2021/08/11 02:35:51;;;;;;;5.13;3.92;;;16.30;99.90;;;;;;5053829;28;20068;-67
2021/08/11 02:38:26;;;;;;;9.23;4.30;;;16.20;99.90;;;;;;5053156;28;20033;-67
2021/08/11 02:41:19;;;;;;;8.68;4.57;;;16.20;99.90;;;;;;5053836;28;20053;-67
2021/08/11 02:43:50;;;;;;;6.72;4.10;;;16.20;99.90;;;;;;5053904;28;20029;-67
2021/08/11 02:46:24;;;;;;;5.07;3.67;;;16.10;99.90;;;;;;5052478;28;20420;-67
2021/08/11 02:49:01;;;;;;;7.65;4.43;;;16.10;99.90;;;;;;5053739;28;20266;-67
2021/08/11 02:51:29;;;;;;;8.48;4.32;;;16.10;99.90;;;;;;5052743;28;20101;-67
2021/08/11 02:53:57;;;;;;;7.30;4.35;;;16.10;99.90;;;;;;5053634;28;20374;-67
2021/08/11 02:56:23;;;;;;;6.65;4.00;;;16.10;99.90;;;;;;5052368;28;20032;-67
2021/08/11 02:58:48;;;;;;;4.90;3.88;;;16.10;99.90;;;;;;5053560;28;20025;-67
2021/08/11 03:01:15;;;;;;;5.25;4.20;;;16.00;99.90;;;;;;5052179;28;20410;-67
2021/08/11 03:03:41;;;;;;;7.15;3.95;;;16.00;99.90;;;;;;5053159;28;20078;-67
2021/08/11 03:06:07;;;;;;;5.65;4.03;;;16.00;99.90;;;;;;5052717;28;20025;-67
2021/08/11 03:08:33;;;;;;;6.32;4.20;;;15.90;99.90;;;;;;5053013;28;20033;-67
2021/08/11 03:11:01;;;;;;;7.75;4.80;;;15.90;99.90;;;;;;5033749;28;20076;-66
2021/08/11 03:13:27;;;;;;;6.60;4.25;;;15.90;99.90;;;;;;5032738;28;20022;-67
2021/08/11 03:15:53;;;;;;;7.85;4.85;;;15.90;99.90;;;;;;5032850;28;20474;-67
2021/08/11 03:18:19;;;;;;;10.95;5.22;;;15.80;99.90;;;;;;5032201;28;20399;-67
2021/08/11 03:20:45;;;;;;;6.43;4.82;;;15.80;99.90;;;;;;5032806;28;20079;-67
2021/08/11 03:23:13;;;;;;;8.10;4.93;;;15.80;99.90;;;;;;5032504;28;20430;-67
2021/08/11 03:25:43;;;;;;;6.57;4.75;;;15.70;99.90;;;;;;5032999;28;20033;-67
2021/08/11 03:28:11;;;;;;;6.50;4.63;;;15.60;99.90;;;;;;5032561;28;20103;-67
2021/08/11 03:30:37;;;;;;;5.85;4.45;;;15.60;99.90;;;;;;5032994;28;20115;-67
2021/08/11 03:33:04;;;;;;;6.03;4.50;;;15.60;99.90;;;;;;5052510;28;20113;-67
2021/08/11 03:35:30;;;;;;;12.48;5.00;;;15.50;99.90;;;;;;5052092;28;20116;-67
2021/08/11 03:37:55;;;;;;;8.82;4.85;;;15.50;99.90;;;;;;5052880;28;20090;-66
2021/08/11 03:40:21;;;;;;;8.00;4.70;;;15.50;99.90;;;;;;5051611;28;20087;-67
2021/08/11 03:42:47;;;;;;;6.97;5.03;;;15.40;99.90;;;;;;5052741;28;20021;-67
2021/08/11 03:45:13;;;;;;;9.43;4.88;;;15.40;99.90;;;;;;5052135;28;20038;-67
2021/08/11 03:47:43;;;;;;;7.40;5.72;;;15.50;99.90;;;;;;5052116;28;20033;-67
2021/08/11 03:50:12;;;;;;;;;;;15.40;99.90;;;;;;5052365;28;20094;-67
2021/08/11 03:52:38;;;;;;;7.93;4.90;;;15.40;99.90;;;;;;5050010;28;19905;-67
2021/08/11 03:55:04;;;;;;;5.60;4.53;;;15.40;99.90;;;;;;5051533;28;20100;-67
2021/08/11 03:57:29;;;;;;;6.78;4.07;;;15.40;99.90;;;;;;5050941;28;20029;-67
2021/08/11 03:59:55;;;;;;;5.90;4.53;;;15.30;99.90;;;;;;5051788;28;20038;-67
2021/08/11 04:02:21;;;;;;;7.40;4.45;;;15.30;99.90;;;;;;5051082;28;20051;-67
2021/08/11 04:04:46;;;;;;;8.48;5.18;;;15.30;99.90;;;;;;5051689;28;20064;-67
2021/08/11 04:07:12;;;;;;;7.47;4.70;;;15.30;99.90;;;;;;5050933;28;20108;-67
2021/08/11 04:09:37;;;;;;;6.18;4.30;;;15.30;99.90;;;;;;5043874;28;20052;-66
2021/08/11 04:12:03;;;;;;;8.43;5.00;;;15.30;99.90;;;;;;5031770;28;20104;-67
2021/08/11 04:14:29;;;;;;;16.63;5.95;;;15.30;99.90;;;;;;5031265;28;20022;-67
2021/08/11 04:16:55;;;;;;;9.75;5.43;;;15.40;99.90;;;;;;5031838;28;20057;-67
2021/08/11 04:19:20;;;;;;;7.32;5.00;;;15.40;99.90;;;;;;5030236;28;20417;-67
2021/08/11 04:21:46;;;;;;;8.05;4.93;;;15.50;99.90;;;;;;5031397;28;20057;-67
2021/08/11 04:24:11;;;;;;;6.43;4.82;;;15.50;99.90;;;;;;5031251;28;20486;-67
2021/08/11 04:26:37;;;;;;;7.82;4.70;;;15.50;99.90;;;;;;5046222;28;20048;-66
2021/08/11 04:29:03;;;;;;;8.20;4.93;;;15.50;99.90;;;;;;5042300;28;20488;-67
2021/08/11 04:31:28;;;;;;;8.27;5.45;;;15.50;99.90;;;;;;5050993;28;20021;-67
2021/08/11 04:33:54;;;;;;;6.85;4.57;;;15.50;99.90;;;;;;5051416;28;20056;-67
2021/08/11 04:36:20;;;;;;;7.32;5.32;;;15.50;99.90;;;;;;5050750;28;20112;-67
2021/08/11 04:38:45;;;;;;;8.48;4.80;;;15.50;99.90;;;;;;5050373;28;20029;-67
2021/08/11 04:41:14;;;;;;;8.25;5.13;;;15.50;99.90;;;;;;5051112;28;20102;-67
2021/08/11 04:43:40;;;;;;;6.03;4.43;;;15.50;99.90;;;;;;5051681;28;20036;-67
2021/08/11 04:46:06;;;;;;;8.65;4.95;;;15.50;99.90;;;;;;5051513;28;20025;-67
2021/08/11 04:48:32;;;;;;;5.70;4.63;;;15.50;99.90;;;;;;5050849;28;20104;-67
2021/08/11 04:50:59;;;;;;;8.07;4.88;;;15.50;99.90;;;;;;5051023;28;20466;-67
2021/08/11 04:53:25;;;;;;;5.97;4.25;;;15.60;99.90;;;;;;5050584;28;20021;-67
2021/08/11 04:55:50;;;;;;;5.88;4.53;;;15.60;99.90;;;;;;5051413;28;20386;-67
2021/08/11 04:58:17;;;;;;;7.95;4.93;;;15.70;99.90;;;;;;5050434;28;20047;-67
2021/08/11 05:00:42;;;;;;;8.73;4.50;;;15.70;99.90;;;;;;5049906;28;20025;-67
2021/08/11 05:03:08;;;;;;;4.95;4.13;;;15.80;99.90;;;;;;5050951;28;20025;-67
2021/08/11 05:05:34;;;;;;;6.60;4.85;;;15.80;99.90;;;;;;5050475;28;20028;-67
2021/08/11 05:08:00;;;;;;;6.38;4.32;;;15.90;99.90;;;;;;5051175;28;20029;-67
2021/08/11 05:10:25;;;;;;;6.38;4.45;;;15.90;99.90;;;;;;5038206;28;20106;-67
2021/08/11 05:12:51;;;;;;;5.60;4.38;;;16.00;99.90;;;;;;5035100;28;20188;-68
2021/08/11 05:15:17;;;;;;;5.30;3.97;;;16.00;99.90;;;;;;5034390;28;20044;-68
2021/08/11 05:17:43;;;;;;;6.43;4.65;;;16.00;99.90;;;;;;5035412;28;20079;-67
2021/08/11 05:20:10;;;;;;;5.18;4.20;;;16.10;99.90;;;;;;5034998;28;20033;-67
2021/08/11 05:22:35;;;;;;;7.80;4.45;;;16.20;99.90;;;;;;5034452;28;20030;-67
2021/08/11 05:25:01;;;;;;;6.03;4.00;;;16.30;99.90;;;;;;5035247;28;20120;-68
2021/08/11 05:27:27;;;;;;;8.20;4.80;;;16.30;99.90;;;;;;5030827;28;20463;-68
2021/08/11 05:29:53;;;;;;;6.13;4.63;;;16.40;99.90;;;;;;5029265;28;20021;-65
2021/08/11 05:32:18;;;;;;;6.55;5.03;;;16.50;99.90;;;;;;5051525;28;20078;-65
2021/08/11 05:34:44;;;;;;;7.55;4.65;;;16.60;99.90;;;;;;5054985;28;20043;-66
2021/08/11 05:37:11;;;;;;;11.13;5.60;;;16.80;99.90;;;;;;5054449;28;20039;-66
2021/08/11 05:39:37;;;;;;;7.55;5.05;;;16.90;99.90;;;;;;5053776;28;20414;-71
2021/08/11 05:42:03;;;;;;;9.77;5.20;;;17.10;99.90;;;;;;5055875;28;20033;-67
2021/08/11 05:44:28;;;;;;;6.60;4.80;;;17.20;99.90;;;;;;5050395;28;20086;-68
2021/08/11 05:46:54;;;;;;;6.93;4.57;;;17.30;99.90;;;;;;5054643;28;20029;-66
2021/08/11 05:49:21;;;;;;;8.68;5.75;;;17.40;99.90;;;;;;5053652;28;20044;-70
2021/08/11 05:51:47;;;;;;;10.07;5.70;;;17.50;99.90;;;;;;5054383;28;20083;-66
2021/08/11 05:54:12;;;;;;;7.22;5.47;;;17.60;99.90;;;;;;5053772;28;20044;-66
2021/08/11 05:56:38;;;;;;;9.02;5.82;;;17.70;99.90;;;;;;5053961;28;20036;-65
2021/08/11 05:59:03;;;;;;;8.55;5.57;;;17.80;99.90;;;;;;5040179;28;20096;-68
2021/08/11 06:01:30;;;;;;;8.45;5.65;;;17.90;99.90;;;;;;5041219;28;20111;-64
2021/08/11 06:04:00;;;;;;;9.55;4.85;;;18.00;99.90;;;;;;5039220;28;20022;-63
2021/08/11 06:06:26;;;;;;;13.20;5.00;;;18.10;99.90;;;;;;5033499;28;20445;-62
2021/08/11 06:08:51;;;;;;;9.57;5.40;;;18.10;99.90;;;;;;5046324;28;20060;-65
2021/08/11 06:11:17;;;;;;;7.07;4.70;;;18.20;99.90;;;;;;5033679;28;20458;-65
2021/08/11 06:13:43;;;;;;;10.10;5.38;;;18.30;99.90;;;;;;5034206;28;20044;-65
2021/08/11 06:16:09;;;;;;;9.27;5.65;;;18.40;99.90;;;;;;5034301;28;20037;-66
2021/08/11 06:18:34;;;;;;;8.65;5.50;;;18.60;99.90;;;;;;5033829;28;20468;-67
2021/08/11 06:21:00;;;;;;;9.00;5.82;;;18.70;99.90;;;;;;5033294;28;20466;-66
2021/08/11 06:23:26;;;;;;;12.38;5.38;;;18.90;99.90;;;;;;5032360;28;20375;-69
2021/08/11 06:25:51;;;;;;;8.52;5.90;;;19.00;99.90;;;;;;5033722;28;20037;-67
2021/08/11 06:28:18;;;;;;;8.68;5.40;;;19.20;99.90;;;;;;5040506;28;20021;-68
2021/08/11 06:30:43;;;;;;;12.63;5.35;;;19.20;99.90;;;;;;5035398;28;20103;-67
2021/08/11 06:33:09;;;;;;;9.52;6.20;;;19.30;99.90;;;;;;5041027;28;20276;-66
2021/08/11 06:35:35;;;;;;;11.10;6.18;;;19.40;99.90;;;;;;5051202;28;20040;-66
2021/08/11 06:38:01;;;;;;;9.32;5.72;;;19.60;99.90;;;;;;5053717;28;20028;-66
2021/08/11 06:40:27;;;;;;;10.10;5.00;;;19.80;99.90;;;;;;5052387;28;20051;-67
2021/08/11 06:42:53;;;;;;;8.77;5.25;;;19.90;99.90;;;;;;5053161;28;20036;-67
2021/08/11 06:45:19;;;;;;;11.05;5.28;;;20.00;99.90;;;;;;5053625;28;20466;-67
2021/08/11 06:47:45;;;;;;;8.85;4.90;;;20.00;99.90;;;;;;5053745;28;20044;-66
2021/08/11 06:50:12;;;;;;;12.15;5.75;;;20.10;99.90;;;;;;5054167;28;20025;-66
2021/08/11 06:52:38;;;;;;;8.88;5.13;;;20.10;99.90;;;;;;5053899;28;20025;-67
2021/08/11 06:55:22;;;;;;;8.60;5.53;;;20.10;99.90;;;;;;5053663;28;20091;-66
2021/08/11 06:57:50;;;;;;;9.13;5.20;;;20.00;99.90;;;;;;5053817;28;20548;-67
2021/08/11 07:00:16;;;;;;;9.50;5.68;;;20.00;99.90;;;;;;5053320;28;20375;-67
2021/08/11 07:02:41;;;;;;;11.07;5.70;;;20.00;99.90;;;;;;5053486;28;20025;-67
2021/08/11 07:05:07;;;;;;;8.13;4.93;;;20.00;99.90;;;;;;5053684;28;20112;-66
2021/08/11 07:07:33;;;;;;;8.80;5.00;;;20.00;99.90;;;;;;5052985;28;20028;-67
2021/08/11 07:09:59;;;;;;;8.65;4.53;;;20.00;99.90;;;;;;5042524;28;20395;-67
2021/08/11 07:12:25;;;;;;;9.90;4.97;;;20.00;99.90;;;;;;5032948;28;20163;-67
2021/08/11 07:14:52;;;;;;;14.23;5.15;;;20.10;99.90;;;;;;5033251;28;20025;-66
2021/08/11 07:17:17;;;;;;;10.32;5.30;;;20.20;99.90;;;;;;5033045;28;20049;-67
2021/08/11 07:19:43;;;;;;;8.50;4.38;;;20.30;99.90;;;;;;5033282;28;20118;-66
2021/08/11 07:22:10;;;;;;;7.47;4.63;;;20.30;99.90;;;;;;5033446;28;20032;-66
2021/08/11 07:24:36;;;;;;;7.70;5.18;;;20.40;99.90;;;;;;5032741;28;20033;-66
2021/08/11 07:27:02;;;;;;;11.25;5.57;;;20.60;99.90;;;;;;5033293;28;20036;-66
2021/08/11 07:29:28;;;;;;;12.88;6.50;;;20.60;99.90;;;;;;5032886;28;20134;-66
2021/08/11 07:31:53;;;;;;;9.88;5.93;;;20.80;99.90;;;;;;5034114;28;20485;-66
2021/08/11 07:34:19;;;;;;;9.60;6.22;;;20.90;99.90;;;;;;5051234;28;20028;-67
2021/08/11 07:36:45;;;;;;;7.18;4.82;;;21.10;99.90;;;;;;5052701;28;20104;-66
2021/08/11 07:39:11;;;;;;;5.72;4.32;;;21.20;99.90;;;;;;5053113;28;20025;-66
2021/08/11 07:41:37;;;;;;;7.32;4.82;;;21.20;99.90;;;;;;5052351;28;20064;-66
2021/08/11 07:44:03;;;;;;;7.15;4.75;;;21.30;99.90;;;;;;5052521;28;20470;-66
2021/08/11 07:46:29;;;;;;;9.63;5.05;;;21.60;99.90;;;;;;5051423;28;20025;-66
2021/08/11 07:48:55;;;;;;;5.93;4.35;;;21.80;99.90;;;;;;5052427;28;20033;-67
2021/08/11 07:51:20;;;;;;;8.93;4.70;;;21.80;99.90;;;;;;5051729;28;20070;-67
2021/08/11 07:53:46;;;;;;;10.70;5.45;;;21.90;99.90;;;;;;5052183;28;20378;-66
2021/08/11 07:56:12;;;;;;;6.40;5.20;;;22.00;99.90;;;;;;5052214;28;20037;-66
2021/08/11 07:58:37;;;;;;;9.25;5.85;;;22.10;99.90;;;;;;5051332;28;20113;-66
2021/08/11 08:01:03;;;;;;;14.80;6.20;;;22.30;99.90;;;;;;5052137;28;20036;-66
2021/08/11 08:03:28;;;;;;;8.45;5.70;;;22.40;99.90;;;;;;5051385;28;20521;-66
2021/08/11 08:05:54;;;;;;;13.73;6.07;;;22.60;99.90;;;;;;5052028;28;20071;-66
2021/08/11 08:08:20;;;;;;;9.82;5.40;;;22.60;99.90;;;;;;5051976;28;20029;-66
2021/08/11 08:10:46;;;;;;;14.48;6.78;;;22.70;99.40;;;;;;5034370;28;20042;-66
2021/08/11 08:13:11;;;;;;;12.23;6.05;;;22.80;99.40;;;;;;5032599;28;20036;-66
2021/08/11 08:15:37;;;;;;;8.95;5.57;;;22.90;99.50;;;;;;5031830;28;20045;-67
2021/08/11 08:18:03;;;;;;;11.43;6.07;;;23.00;98.10;;;;;;5032162;28;20055;-67
2021/08/11 08:20:30;;;;;;;13.43;5.45;;;23.10;98.60;;;;;;5031987;28;20022;-64
2021/08/11 08:22:56;;;;;;;21.45;5.22;;;23.10;98.50;;;;;;5031655;28;20467;-64
2021/08/11 08:25:23;;;;;;;11.70;5.05;;;23.20;98.10;;;;;;5031570;28;20033;-64
2021/08/11 08:27:51;;;;;;;8.65;4.50;;;23.40;98.10;;;;;;5031872;28;20038;-64
2021/08/11 08:30:17;;;;;;;6.88;4.70;;;23.60;96.70;;;;;;5032344;28;20052;-64
2021/08/11 08:32:44;;;;;;;8.32;5.25;;;23.70;96.50;;;;;;5040803;28;20037;-64
2021/08/11 08:35:11;;;;;;;8.82;4.70;;;23.90;95.40;;;;;;5044021;28;20037;-64
2021/08/11 08:37:37;;;;;;;16.55;5.15;;;24.10;94.80;;;;;;5031110;28;20029;-64
2021/08/11 08:40:08;;;;;;;11.55;5.38;;;24.10;94.00;;;;;;5031752;28;20140;-64
2021/08/11 08:42:39;;;;;;;8.68;5.32;;;24.20;94.00;;;;;;5030902;28;20485;-64
2021/08/11 08:45:07;;;;;;;11.38;5.18;;;24.20;94.40;;;;;;5031606;28;20044;-64
2021/08/11 08:47:34;;;;;;;8.35;4.95;;;24.30;93.80;;;;;;5031419;28;20048;-64
2021/08/11 08:50:01;;;;;;;8.32;4.88;;;24.40;93.50;;;;;;5031710;28;20049;-64
2021/08/11 08:52:28;;;;;;;6.65;4.53;;;24.60;93.00;;;;;;5031262;28;20053;-64
2021/08/11 08:54:57;;;;;;;8.38;4.65;;;24.70;93.20;;;;;;5031965;28;20471;-64
2021/08/11 08:57:23;;;;;;;7.80;4.10;;;24.80;92.50;;;;;;5031173;28;20025;-64
2021/08/11 08:59:49;;;;;;;8.65;3.88;;;24.90;91.30;;;;;;5031670;28;20033;-64
2021/08/11 09:02:15;;;;;;;5.60;3.30;;;25.00;89.80;;;;;;5036450;28;20451;-64
2021/08/11 09:04:42;;;;;;;7.03;3.47;;;25.10;89.40;;;;;;5050781;28;20122;-65
2021/08/11 09:07:18;;;;;;;4.95;3.90;;;25.30;89.40;;;;;;5051633;28;20044;-64
2021/08/11 09:09:45;;;;;;;7.28;4.05;;;25.60;88.40;;;;;;5040466;28;20041;-64
2021/08/11 09:12:18;;;;;;;10.23;4.10;;;25.70;87.60;;;;;;5031800;28;20026;-64
2021/08/11 09:14:49;;;;;;;8.20;3.88;;;25.80;86.70;;;;;;5031294;28;20044;-65
2021/08/11 09:17:37;;;;;;;7.07;3.85;;;25.80;86.10;;;;;;5031648;28;20029;-64
2021/08/11 09:20:07;;;;;;;4.40;3.05;;;25.90;86.20;;;;;;5031824;28;20037;-64
2021/08/11 09:22:46;;;;;;;8.15;3.60;;;26.10;85.40;;;;;;5030765;28;20033;-64
2021/08/11 09:25:12;;;;;;;8.20;3.47;;;26.20;83.90;;;;;;5031511;28;20045;-64
2021/08/11 09:27:43;;;;;;;5.25;3.17;;;26.40;82.80;;;;;;5030574;28;20026;-64
2021/08/11 09:30:14;;;;;;;3.65;3.25;;;26.50;81.30;;;;;;5028172;28;20513;-65
2021/08/11 09:32:57;;;;;;;7.50;3.75;;;26.50;79.00;;;;;;5038497;28;20378;-64
2021/08/11 09:35:27;;;;;;;4.63;3.38;;;26.70;77.20;;;;;;5033471;28;20044;-64
2021/08/11 09:37:58;;;;;;;5.18;3.47;;;26.80;76.70;;;;;;5031192;28;20499;-64
2021/08/11 09:40:27;;;;;;;6.43;3.70;;;26.90;76.70;;;;;;5031029;28;20399;-64
2021/08/11 09:42:59;;;;;;;5.45;3.40;;;26.90;76.00;;;;;;5031334;28;20048;-64
2021/08/11 09:45:26;;;;;;;7.05;3.28;;;27.00;74.40;;;;;;5034699;28;20043;-64
2021/08/11 09:47:58;;;;;;;3.72;3.13;;;27.00;74.30;;;;;;5044807;28;20156;-64
2021/08/11 09:51:02;;;;;;;5.05;3.53;;;27.00;74.00;;;;;;5037770;28;20462;-65
2021/08/11 09:53:28;;;;;;;5.82;3.70;;;27.20;74.10;;;;;;5027712;28;20042;-64
2021/08/11 09:56:04;;;;;;;6.40;3.75;;;27.30;73.50;;;;;;5036156;28;20059;-64
2021/08/11 09:58:31;;;;;;;5.78;3.72;;;27.40;72.20;;;;;;5034019;28;20068;-64
2021/08/11 10:00:57;;;;;;;4.30;3.25;;;27.50;71.80;;;;;;5053599;28;20032;-64
2021/08/11 10:03:22;;;;;;;3.60;2.83;;;27.90;71.60;;;;;;5043162;28;20032;-65
2021/08/11 10:05:50;;;;;;;5.25;3.45;;;28.30;70.50;;;;;;5035246;28;20080;-64
2021/08/11 10:08:27;;;;;;;6.82;3.70;;;28.70;69.00;;;;;;5034098;28;20116;-64
2021/08/11 10:10:53;;;;;;;5.20;3.42;;;28.90;68.60;;;;;;5043115;28;20041;-64
2021/08/11 10:13:21;;;;;;;5.93;3.38;;;29.00;67.70;;;;;;5034078;28;20482;-64
2021/08/11 10:15:47;;;;;;;5.03;3.17;;;28.90;67.90;;;;;;5033583;28;20497;-64
2021/08/11 10:18:23;;;;;;;5.97;3.17;;;28.80;67.90;;;;;;5052966;28;20032;-64
2021/08/11 10:20:51;;;;;;;3.85;3.35;;;28.60;68.00;;;;;;5052837;28;20084;-64
2021/08/11 10:23:19;;;;;;;6.45;3.28;;;28.30;68.50;;;;;;5025854;28;20062;-64
2021/08/11 10:25:46;;;;;;;5.60;3.53;;;28.20;67.80;;;;;;5039528;28;20126;-64
2021/08/11 10:28:13;;;;;;;6.45;3.55;;;28.10;67.60;;;;;;5043063;28;20033;-64
2021/08/11 10:30:39;;;;;;;8.05;3.67;;;28.00;68.00;;;;;;5032715;28;20471;-64
2021/08/11 10:33:06;;;;;;;5.18;3.03;;;27.90;69.40;;;;;;5036886;28;20030;-64
2021/08/11 10:35:33;;;;;;;6.00;3.28;;;27.90;66.90;;;;;;5032533;28;20048;-64
2021/08/11 10:37:59;;;;;;;5.63;3.60;;;27.90;67.30;;;;;;5035027;28;20382;-64
2021/08/11 10:40:26;;;;;;;6.70;3.45;;;28.00;67.80;;;;;;5032925;28;20049;-65
2021/08/11 10:42:58;;;;;;;5.57;3.30;;;28.20;68.20;;;;;;5045100;28;20021;-64
2021/08/11 10:45:26;;;;;;;6.80;4.03;;;28.40;67.50;;;;;;5051037;28;20056;-65
2021/08/11 10:47:52;;;;;;;6.85;3.33;;;28.50;67.10;;;;;;5052322;28;20516;-64
2021/08/11 10:50:19;;;;;;;5.60;3.55;;;28.40;65.60;;;;;;5039821;28;20494;-64
2021/08/11 10:52:45;;;;;;;3.50;3.03;;;28.20;66.60;;;;;;5032160;28;20025;-64
2021/08/11 10:55:12;;;;;;;8.13;3.63;;;28.10;67.40;;;;;;5036840;28;20033;-64
2021/08/11 10:57:38;;;;;;;5.20;3.58;;;28.00;67.60;;;;;;5036376;28;20033;-64
2021/08/11 11:00:31;;;;;;;6.85;3.70;;;27.80;66.50;;;;;;5032832;28;20026;-64
2021/08/11 11:02:57;;;;;;;7.47;3.58;;;27.50;67.60;;;;;;5035266;28;20045;-64
2021/08/11 11:05:24;;;;;;;5.00;3.47;;;27.20;68.90;;;;;;5033339;28;20081;-65
2021/08/11 11:08:09;;;;;;;7.35;3.75;;;27.00;68.40;;;;;;5040566;28;20029;-64
2021/08/11 11:10:35;;;;;;;5.65;3.45;;;26.80;69.00;;;;;;5041562;28;20467;-63
2021/08/11 11:13:21;;;;;;;4.72;3.13;;;26.80;69.60;;;;;;5032691;28;20033;-64
2021/08/11 11:15:46;;;;;;;6.43;3.10;;;26.80;69.80;;;;;;5036990;28;20044;-64
2021/08/11 11:18:23;;;;;;;6.68;3.20;;;26.80;69.20;;;;;;5049962;28;20037;-64
2021/08/11 11:20:58;;;;;;;3.70;3.35;;;26.90;69.00;;;;;;5032478;28;20030;-64
2021/08/11 11:23:33;;;;;;;3.67;3.35;;;27.20;68.30;;;;;;5032638;28;20447;-64
2021/08/11 11:26:09;;;;;;;5.38;3.35;;;27.70;67.80;;;;;;5032372;28;20033;-64
2021/08/11 11:28:50;;;;;;;5.20;3.78;;;28.10;66.20;;;;;;5033153;28;20028;-64
2021/08/11 11:31:28;;;;;;;5.22;3.40;;;28.50;64.30;;;;;;5051628;28;20025;-64
2021/08/11 11:33:54;;;;;;;5.93;3.45;;;28.80;64.20;;;;;;5050902;28;20439;-64
2021/08/11 11:36:24;;;;;;;5.65;3.65;;;29.10;64.40;;;;;;5036710;28;20041;-64
2021/08/11 11:39:08;;;;;;;3.80;3.22;;;29.50;62.50;;;;;;5048881;28;20534;-64
2021/08/11 11:41:35;;;;;;;5.97;3.55;;;29.90;60.60;;;;;;5051100;28;20095;-64
2021/08/11 11:44:39;;;;;;;8.88;3.75;;;29.90;62.00;;;;;;5051394;28;20033;-64
2021/08/11 11:47:05;;;;;;;8.05;4.55;;;29.70;63.40;;;;;;5050793;28;20029;-64
2021/08/11 11:49:31;;;;;;;6.95;3.78;;;29.00;64.70;;;;;;5031454;28;20030;-64
2021/08/11 11:51:56;;;;;;;9.38;3.45;;;28.50;66.40;;;;;;5031922;28;20059;-63
2021/08/11 11:54:22;;;;;;;5.80;4.20;;;28.20;66.60;;;;;;5040053;28;20077;-63
2021/08/11 11:56:49;;;;;;;6.78;3.90;;;27.80;67.40;;;;;;5031310;28;20041;-63
2021/08/11 11:59:15;;;;;;;9.57;4.03;;;27.60;68.20;;;;;;5032242;28;20475;-63
2021/08/11 12:01:41;;;;;;;6.85;4.00;;;27.40;68.50;;;;;;5032705;28;20037;-64
2021/08/11 12:04:09;;;;;;;10.10;3.83;;;27.30;68.20;;;;;;5043062;28;20051;-64
2021/08/11 12:06:41;;;;;;;5.80;3.80;;;27.40;68.40;;;;;;5050664;28;20029;-64
2021/08/11 12:09:07;;;;;;;6.72;3.85;;;27.60;69.60;;;;;;5045451;28;20534;-64
2021/08/11 12:11:35;;;;;;;8.88;3.80;;;27.70;68.40;;;;;;5043943;28;20036;-64
2021/08/11 12:14:01;;;;;;;7.72;3.83;;;27.80;67.60;;;;;;5051138;28;20040;-64
2021/08/11 12:16:41;;;;;;;9.07;4.40;;;28.10;66.60;;;;;;5047303;28;20040;-65
2021/08/11 12:19:09;;;;;;;5.82;4.20;;;28.70;65.90;;;;;;5030972;28;20106;-64
2021/08/11 12:21:35;;;;;;;6.40;4.07;;;29.00;64.80;;;;;;5033762;28;20025;-64
2021/08/11 12:24:01;;;;;;;6.45;4.00;;;29.10;64.40;;;;;;5051210;28;20024;-64
2021/08/11 12:26:30;;;;;;;7.18;3.55;;;29.00;63.90;;;;;;5050194;28;20048;-65
2021/08/11 12:28:58;;;;;;;5.63;3.65;;;28.70;64.00;;;;;;5050577;28;20517;-64
2021/08/11 12:31:29;;;;;;;4.03;3.35;;;28.50;65.10;;;;;;5050363;28;20369;-64
2021/08/11 12:34:00;;;;;;;4.32;3.28;;;28.40;65.50;;;;;;5039353;28;20026;-65
2021/08/11 12:36:31;;;;;;;5.53;3.40;;;28.50;65.30;;;;;;5031395;28;20510;-64
2021/08/11 12:39:11;;;;;;;4.20;3.60;;;28.70;65.20;;;;;;5032019;28;20033;-64
2021/08/11 12:41:40;;;;;;;;;;;29.00;64.30;;;;;;5031560;28;20041;-64
2021/08/11 12:44:12;;;;;;;5.82;3.58;;;29.20;63.80;;;;;;5031235;28;19909;-64
2021/08/11 12:46:44;;;;;;;6.90;3.85;;;29.50;62.00;;;;;;5037078;28;20025;-64
2021/08/11 12:49:31;;;;;;;5.05;3.20;;;29.50;61.90;;;;;;5031669;28;20045;-64
2021/08/11 12:54:50;;;;;;;4.05;3.03;;;29.00;64.10;;;;;;5030608;28;20544;-65